Charlemont, Massachusetts
Current Conditions -  °F | °C
As of 10:52 AM on Friday 19 Dec 2014 (Local Time) from KAQW Reporting Station
Overcast Overcast  
Wind Chill: 20°   Ceiling: 2300
Heat Index: 29°   Visibility: 10mi
Dew Point: 20°   Wind: 9mph
Humidity: 69%   Direction: 280°W
Pressure: 30"   Gusts: NA
Location:  42.63°N, 72.87°W
Report Text: KAQW 191552Z AUTO 28008KT 10SM OVC023 M02/M07 A3000 RMK AO2 SLP167 T10171067
Loading
Personal Weather Stations






























Interactive Weather Map New forecast layout! Learn more

10-Day Weather Forecast

Advertisements
Track Severe Weather on mobile